createdAt,value
2018-03-24T00:00:06.725Z,5.26
2018-03-24T00:02:36.016Z,5.19
2018-03-24T00:05:05.483Z,5.01
2018-03-24T00:07:35.594Z,4.96
2018-03-24T00:10:05.891Z,4.78
2018-03-24T00:12:35.859Z,4.69
2018-03-24T00:15:05.365Z,4.56
2018-03-24T00:17:34.551Z,4.24
2018-03-24T00:20:04.017Z,4.06
2018-03-24T00:22:33.217Z,4.09
2018-03-24T00:25:02.437Z,4.29
2018-03-24T00:27:31.663Z,4.80
2018-03-24T00:30:00.853Z,4.85
2018-03-24T00:32:30.449Z,4.91
2018-03-24T00:34:59.580Z,4.99
2018-03-24T00:37:29.273Z,5.08
2018-03-24T00:39:58.513Z,5.06
2018-03-24T00:42:27.893Z,5.11
2018-03-24T00:44:57.356Z,5.09
2018-03-24T00:47:26.868Z,5.05
2018-03-24T00:49:56.193Z,5.33
2018-03-24T00:52:25.402Z,5.13
2018-03-24T00:54:54.633Z,5.07
2018-03-24T00:57:24.472Z,5.31
2018-03-24T00:59:54.013Z,4.96
2018-03-24T01:02:23.236Z,4.87
2018-03-24T01:04:52.658Z,4.99
2018-03-24T01:07:22.309Z,4.87
2018-03-24T01:09:51.622Z,4.89
2018-03-24T01:12:20.802Z,4.97
2018-03-24T01:14:50.664Z,5.03
2018-03-24T01:17:19.837Z,5.03
2018-03-24T01:19:49.442Z,5.01
2018-03-24T01:22:19.334Z,5.01
2018-03-24T01:24:48.834Z,5.04
2018-03-24T01:27:18.343Z,5.08
2018-03-24T01:29:47.935Z,4.86
2018-03-24T01:32:17.171Z,5.07
2018-03-24T01:34:46.567Z,4.91
2018-03-24T01:37:16.244Z,4.86
2018-03-24T01:39:45.524Z,4.98
2018-03-24T01:42:15.301Z,4.91
2018-03-24T01:44:45.348Z,4.77
2018-03-24T01:47:15.076Z,4.80
2018-03-24T01:49:44.522Z,4.82
2018-03-24T01:52:14.285Z,4.70
2018-03-24T01:54:43.794Z,4.90
2018-03-24T01:57:13.097Z,4.80
2018-03-24T01:59:42.935Z,4.71
2018-03-24T02:02:13.332Z,4.71
2018-03-24T02:04:43.181Z,4.76
2018-03-24T02:07:13.390Z,4.81
2018-03-24T02:09:42.858Z,4.80
2018-03-24T02:12:14.369Z,4.81
2018-03-24T02:14:44.349Z,4.79
2018-03-24T02:17:15.239Z,4.77
2018-03-24T02:19:45.236Z,4.74
2018-03-24T02:22:15.065Z,4.60
2018-03-24T02:24:45.384Z,4.70
2018-03-24T02:27:15.039Z,4.99
2018-03-24T02:29:46.422Z,4.96
2018-03-24T02:32:15.973Z,4.86
2018-03-24T02:34:45.431Z,4.76
2018-03-24T02:37:15.117Z,4.89
2018-03-24T02:39:44.599Z,4.59
2018-03-24T02:42:13.951Z,4.50
2018-03-24T02:44:44.020Z,4.54
2018-03-24T02:47:13.455Z,4.10
2018-03-24T02:49:43.059Z,4.43
2018-03-24T02:52:12.477Z,4.30
2018-03-24T02:54:42.098Z,3.90
2018-03-24T02:57:11.656Z,3.73
2018-03-24T02:59:43.673Z,3.81
2018-03-24T03:02:14.664Z,3.41
2018-03-24T03:04:46.820Z,4.25
2018-03-24T03:07:16.253Z,4.14
2018-03-24T03:09:45.749Z,4.33
2018-03-24T03:12:15.411Z,4.36
2018-03-24T03:14:45.333Z,4.15
2018-03-24T03:17:14.708Z,4.28
2018-03-24T03:19:44.413Z,3.32
2018-03-24T03:22:13.922Z,3.46
2018-03-24T03:24:43.414Z,3.42
2018-03-24T03:27:13.083Z,3.75
2018-03-24T03:29:43.179Z,3.83
2018-03-24T03:32:12.877Z,3.85
2018-03-24T03:34:42.744Z,3.56
2018-03-24T03:37:12.338Z,3.44
2018-03-24T03:39:41.883Z,3.79
2018-03-24T03:42:11.698Z,3.57
2018-03-24T03:44:41.711Z,3.28
2018-03-24T03:47:11.078Z,3.00
2018-03-24T03:49:40.576Z,3.21
2018-03-24T03:52:10.140Z,3.35
2018-03-24T03:54:39.655Z,3.15
2018-03-24T03:57:08.981Z,2.92
2018-03-24T03:59:38.510Z,2.50
2018-03-24T04:02:08.179Z,2.85
2018-03-24T04:04:38.120Z,2.60
2018-03-24T04:07:07.896Z,3.28
2018-03-24T04:09:37.468Z,2.50
2018-03-24T04:12:07.011Z,2.58
2018-03-24T04:14:36.967Z,2.90
2018-03-24T04:17:06.431Z,2.98
2018-03-24T04:19:36.546Z,2.21
2018-03-24T04:22:05.920Z,2.10
2018-03-24T04:24:35.380Z,2.40
2018-03-24T04:27:05.367Z,2.76
2018-03-24T04:29:34.781Z,2.88
2018-03-24T04:32:04.337Z,1.94
2018-03-24T04:34:34.500Z,1.89
2018-03-24T04:37:03.817Z,2.18
2018-03-24T04:39:33.180Z,1.70
2018-03-24T04:42:03.019Z,1.72
2018-03-24T04:44:33.218Z,2.24
2018-03-24T04:47:02.726Z,2.42
2018-03-24T04:49:32.744Z,2.39
2018-03-24T04:52:02.168Z,2.36
2018-03-24T04:54:31.643Z,1.95
2018-03-24T04:57:01.532Z,1.90
2018-03-24T04:59:31.038Z,2.03
2018-03-24T05:02:00.399Z,2.02
2018-03-24T05:04:30.358Z,2.09
2018-03-24T05:06:59.915Z,1.92
2018-03-24T05:09:29.470Z,2.03
2018-03-24T05:12:01.365Z,1.31
2018-03-24T05:14:30.719Z,1.50
2018-03-24T05:16:59.980Z,1.68
2018-03-24T05:19:29.959Z,1.14
2018-03-24T05:21:59.682Z,1.27
2018-03-24T05:24:29.094Z,1.58
2018-03-24T05:26:58.773Z,1.38
2018-03-24T05:29:28.281Z,1.17
2018-03-24T05:31:57.662Z,1.45
2018-03-24T05:34:27.315Z,1.16
2018-03-24T05:36:56.966Z,1.02
2018-03-24T05:39:26.478Z,0.93
2018-03-24T05:41:56.225Z,1.25
2018-03-24T05:44:25.738Z,1.49
2018-03-24T05:46:55.102Z,0.98
2018-03-24T05:49:24.669Z,1.27
2018-03-24T05:51:54.508Z,1.01
2018-03-24T05:54:23.695Z,0.88
2018-03-24T05:56:53.094Z,1.46
2018-03-24T05:59:22.338Z,1.68
2018-03-24T06:01:52.227Z,1.84
2018-03-24T06:04:21.643Z,1.60
2018-03-24T06:06:51.238Z,1.89
2018-03-24T06:09:20.679Z,2.07
2018-03-24T06:11:50.368Z,1.83
2018-03-24T06:14:19.517Z,2.06
2018-03-24T06:16:48.949Z,2.24
2018-03-24T06:19:18.468Z,2.20
2018-03-24T06:21:48.003Z,2.16
2018-03-24T06:24:17.491Z,2.37
2018-03-24T06:26:47.148Z,2.51
2018-03-24T06:29:16.674Z,2.01
2018-03-24T06:31:46.223Z,2.31
2018-03-24T06:34:15.721Z,2.33
2018-03-24T06:36:45.552Z,2.23
2018-03-24T06:39:15.128Z,2.47
2018-03-24T06:41:44.576Z,2.06
2018-03-24T06:44:13.990Z,2.22
2018-03-24T06:46:45.885Z,2.27
2018-03-24T06:49:15.072Z,2.08
2018-03-24T06:51:44.363Z,2.15
2018-03-24T06:54:14.004Z,2.06
2018-03-24T06:56:44.838Z,2.27
2018-03-24T06:59:14.515Z,2.20
2018-03-24T07:01:44.088Z,2.10
2018-03-24T07:04:13.311Z,2.40
2018-03-24T07:06:43.043Z,2.27
2018-03-24T07:09:12.882Z,2.36
2018-03-24T07:11:46.052Z,2.40
2018-03-24T07:14:15.576Z,2.66
2018-03-24T07:16:45.437Z,2.73
2018-03-24T07:19:14.711Z,2.86
2018-03-24T07:21:44.014Z,3.23
2018-03-24T07:24:13.746Z,3.05
2018-03-24T07:26:43.537Z,3.15
2018-03-24T07:29:13.598Z,3.18
2018-03-24T07:31:43.302Z,3.38
2018-03-24T07:34:12.644Z,3.86
2018-03-24T07:36:42.567Z,4.25
2018-03-24T07:39:12.436Z,4.05
2018-03-24T07:41:42.104Z,4.15
2018-03-24T07:44:11.573Z,4.21
2018-03-24T07:46:41.760Z,5.11
2018-03-24T07:49:11.469Z,5.32
2018-03-24T07:51:40.869Z,5.89
2018-03-24T07:54:10.708Z,6.44
2018-03-24T07:56:39.993Z,7.19
2018-03-24T07:59:09.399Z,6.94
2018-03-24T08:01:39.145Z,7.20
2018-03-24T08:04:08.426Z,6.71
2018-03-24T08:06:37.620Z,7.33
2018-03-24T08:09:07.200Z,5.73
2018-03-24T08:11:37.736Z,6.09
2018-03-24T08:14:07.225Z,7.11
2018-03-24T08:16:36.972Z,6.82
2018-03-24T08:19:06.319Z,7.69
2018-03-24T08:21:35.640Z,8.30
2018-03-24T08:24:05.280Z,8.05
2018-03-24T08:26:34.527Z,6.86
2018-03-24T08:29:03.797Z,6.04
2018-03-24T08:31:34.544Z,7.10
2018-03-24T08:34:04.086Z,7.66
2018-03-24T08:36:33.467Z,7.89
2018-03-24T08:39:03.311Z,7.86
2018-03-24T08:41:33.609Z,7.82
2018-03-24T08:44:03.415Z,7.05
2018-03-24T08:46:33.392Z,6.76
2018-03-24T08:49:02.599Z,7.78
2018-03-24T08:51:31.900Z,7.42
2018-03-24T08:54:01.665Z,7.08
2018-03-24T08:56:31.612Z,7.81
2018-03-24T08:59:00.861Z,8.46
2018-03-24T09:01:30.890Z,8.84
2018-03-24T09:04:00.458Z,8.94
2018-03-24T09:06:29.703Z,8.77
2018-03-24T09:08:59.408Z,8.43
2018-03-24T09:11:28.602Z,8.53
2018-03-24T09:13:58.219Z,8.01
2018-03-24T09:16:27.781Z,8.20
2018-03-24T09:18:57.131Z,8.37
2018-03-24T09:21:27.339Z,7.65
2018-03-24T09:23:56.568Z,7.24
2018-03-24T09:26:25.927Z,7.21
2018-03-24T09:28:55.714Z,8.11
2018-03-24T09:31:24.912Z,8.72
2018-03-24T09:33:54.129Z,8.51
2018-03-24T09:36:23.713Z,8.63
2018-03-24T09:38:52.972Z,8.00
2018-03-24T09:41:23.107Z,8.94
2018-03-24T09:43:52.435Z,8.57
2018-03-24T09:46:22.253Z,9.58
2018-03-24T09:48:52.950Z,8.87
2018-03-24T09:51:22.379Z,9.39
2018-03-24T09:53:51.641Z,9.62
2018-03-24T09:56:21.073Z,9.71
2018-03-24T09:58:50.297Z,9.70
2018-03-24T10:01:20.533Z,9.76
2018-03-24T10:03:50.162Z,9.39
2018-03-24T10:06:19.353Z,9.44
2018-03-24T10:08:48.580Z,9.58
2018-03-24T10:11:17.790Z,9.80
2018-03-24T10:13:47.138Z,9.67
2018-03-24T10:16:20.790Z,9.43
2018-03-24T10:18:50.192Z,9.49
2018-03-24T10:21:19.726Z,9.18
2018-03-24T10:23:49.357Z,9.59
2018-03-24T10:26:18.653Z,9.71
2018-03-24T10:28:47.846Z,9.19
2018-03-24T10:31:17.386Z,9.82
2018-03-24T10:33:50.832Z,10.02
2018-03-24T10:36:20.306Z,9.86
2018-03-24T10:38:49.542Z,9.86
2018-03-24T10:41:18.756Z,9.82
2018-03-24T10:43:48.462Z,9.86
2018-03-24T10:46:18.035Z,9.93
2018-03-24T10:48:47.662Z,10.23
2018-03-24T10:51:17.131Z,9.65
2018-03-24T10:53:46.337Z,9.77
2018-03-24T10:56:15.975Z,9.71
2018-03-24T10:58:45.546Z,10.26
2018-03-24T11:01:15.163Z,8.61
2018-03-24T11:03:44.360Z,9.54
2018-03-24T11:06:14.279Z,9.28
2018-03-24T11:08:43.428Z,8.91
2018-03-24T11:11:12.642Z,9.78
2018-03-24T11:13:42.287Z,8.80
2018-03-24T11:16:11.700Z,10.37
2018-03-24T11:18:40.880Z,9.88
2018-03-24T11:21:10.459Z,9.79
2018-03-24T11:23:39.612Z,10.06
2018-03-24T11:26:08.794Z,10.56
2018-03-24T11:28:38.570Z,10.38
2018-03-24T11:31:07.792Z,10.62
2018-03-24T11:33:36.962Z,10.63
2018-03-24T11:36:06.432Z,11.01
2018-03-24T11:38:35.647Z,10.69
2018-03-24T11:41:04.904Z,11.48
2018-03-24T11:43:34.113Z,10.62
2018-03-24T11:46:03.627Z,11.82
2018-03-24T11:48:32.843Z,11.35
2018-03-24T11:51:02.034Z,11.31
2018-03-24T11:53:40.341Z,10.70
2018-03-24T11:56:09.869Z,11.96
2018-03-24T11:58:39.910Z,12.35
2018-03-24T12:01:09.983Z,12.19
2018-03-24T12:03:39.642Z,11.57
2018-03-24T12:06:09.286Z,11.76
2018-03-24T12:08:38.550Z,11.13
2018-03-24T12:11:08.619Z,11.64
2018-03-24T12:13:38.126Z,11.80
2018-03-24T12:16:07.898Z,12.01
2018-03-24T12:18:37.266Z,12.17
2018-03-24T12:21:06.765Z,11.41
2018-03-24T12:23:36.397Z,12.99
2018-03-24T12:26:05.987Z,12.49
2018-03-24T12:28:35.298Z,12.91
2018-03-24T12:31:04.791Z,11.18
2018-03-24T12:33:33.996Z,11.61
2018-03-24T12:36:04.421Z,12.07
2018-03-24T12:38:33.791Z,11.53
2018-03-24T12:41:03.404Z,12.71
2018-03-24T12:43:32.936Z,11.38
2018-03-24T12:46:02.903Z,11.66
2018-03-24T12:48:32.545Z,11.98
2018-03-24T12:51:02.117Z,11.09
2018-03-24T12:53:31.355Z,11.86
2018-03-24T12:56:00.764Z,11.45
2018-03-24T12:58:29.978Z,11.73
2018-03-24T13:00:59.202Z,11.89
2018-03-24T13:03:28.726Z,12.31
2018-03-24T13:05:58.134Z,12.04
2018-03-24T13:08:27.381Z,12.43
2018-03-24T13:10:57.046Z,12.51
2018-03-24T13:13:26.480Z,12.65
2018-03-24T13:15:56.386Z,12.55
2018-03-24T13:18:25.781Z,11.82
2018-03-24T13:20:54.986Z,12.38
2018-03-24T13:23:24.560Z,12.45
2018-03-24T13:25:54.071Z,11.14
2018-03-24T13:28:23.580Z,10.79
2018-03-24T13:30:52.802Z,11.99
2018-03-24T13:33:22.330Z,11.47
2018-03-24T13:35:51.549Z,11.50
2018-03-24T13:38:20.950Z,11.71
2018-03-24T13:40:50.430Z,11.97
2018-03-24T13:43:19.687Z,11.81
2018-03-24T13:45:49.037Z,11.80
2018-03-24T13:48:18.536Z,11.45
2018-03-24T13:50:48.036Z,11.23
2018-03-24T13:53:17.384Z,10.77
2018-03-24T13:55:47.378Z,10.81
2018-03-24T13:58:16.605Z,10.81
2018-03-24T14:00:45.807Z,11.19
2018-03-24T14:03:15.681Z,11.10
2018-03-24T14:05:44.959Z,11.16
2018-03-24T14:08:14.482Z,11.26
2018-03-24T14:10:43.989Z,11.11
2018-03-24T14:13:13.722Z,11.33
2018-03-24T14:15:43.190Z,11.10
2018-03-24T14:18:12.712Z,11.05
2018-03-24T14:20:41.957Z,11.08
2018-03-24T14:23:11.577Z,11.04
2018-03-24T14:25:41.271Z,11.04
2018-03-24T14:28:10.528Z,11.11
2018-03-24T14:30:39.744Z,10.90
2018-03-24T14:33:09.292Z,11.01
2018-03-24T14:35:38.511Z,10.88
2018-03-24T14:38:07.787Z,11.09
2018-03-24T14:40:37.331Z,11.11
2018-03-24T14:43:06.621Z,11.24
2018-03-24T14:45:36.214Z,10.95
2018-03-24T14:48:05.845Z,10.57
2018-03-24T14:50:35.215Z,10.86
2018-03-24T14:53:04.836Z,10.70
2018-03-24T14:55:34.075Z,10.79
2018-03-24T14:58:03.464Z,11.07
2018-03-24T15:00:33.450Z,11.01
2018-03-24T15:03:02.693Z,10.67
2018-03-24T15:05:31.927Z,10.69
2018-03-24T15:08:01.703Z,10.20
2018-03-24T15:10:31.219Z,10.34
2018-03-24T15:13:00.468Z,9.95
2018-03-24T15:15:30.733Z,10.00
2018-03-24T15:18:00.563Z,9.97
2018-03-24T15:20:29.738Z,10.14
2018-03-24T15:22:59.343Z,9.86
2018-03-24T15:25:28.885Z,9.86
2018-03-24T15:27:58.516Z,10.15
2018-03-24T15:32:43.879Z,10.17
2018-03-24T15:35:28.733Z,9.59
2018-03-24T15:37:58.275Z,9.72
2018-03-24T15:40:27.530Z,9.77
2018-03-24T15:42:56.874Z,9.79
2018-03-24T15:45:26.574Z,9.66
2018-03-24T15:47:55.865Z,9.85
2018-03-24T15:50:25.087Z,9.86
2018-03-24T15:52:55.607Z,9.60
2018-03-24T15:55:25.078Z,9.62
2018-03-24T15:57:54.570Z,9.39
2018-03-24T16:00:25.350Z,9.49
2018-03-24T16:02:54.556Z,9.59
2018-03-24T16:05:23.707Z,9.42
2018-03-24T16:07:53.379Z,9.61
2018-03-24T16:10:22.628Z,9.57
2018-03-24T16:12:51.875Z,9.46
2018-03-24T16:15:21.493Z,9.48
2018-03-24T16:17:51.089Z,9.40
2018-03-24T16:20:20.311Z,9.38
2018-03-24T16:22:50.172Z,9.36
2018-03-24T16:25:19.578Z,9.18
2018-03-24T16:27:49.055Z,9.18
2018-03-24T16:30:18.560Z,9.21
2018-03-24T16:32:48.256Z,9.27
2018-03-24T16:35:18.238Z,9.07
2018-03-24T16:37:47.924Z,9.22
2018-03-24T16:40:17.432Z,9.13
2018-03-24T16:42:47.014Z,9.08
2018-03-24T16:45:17.527Z,8.89
2018-03-24T16:47:46.775Z,8.96
2018-03-24T16:50:16.468Z,8.80
2018-03-24T16:52:46.349Z,8.99
2018-03-24T16:55:15.832Z,8.71
2018-03-24T16:57:46.283Z,8.70
2018-03-24T17:00:16.501Z,8.82
2018-03-24T17:02:47.696Z,8.64
2018-03-24T17:05:16.920Z,8.61
2018-03-24T17:07:46.630Z,8.46
2018-03-24T17:10:15.882Z,8.30
2018-03-24T17:12:45.910Z,8.52
2018-03-24T17:15:16.023Z,8.35
2018-03-24T17:17:45.433Z,8.35
2018-03-24T17:20:14.819Z,8.17
2018-03-24T17:22:44.657Z,8.32
2018-03-24T17:25:14.124Z,7.99
2018-03-24T17:27:43.339Z,8.03
2018-03-24T17:30:13.066Z,7.92
2018-03-24T17:32:42.385Z,7.83
2018-03-24T17:35:17.224Z,7.76
2018-03-24T17:37:50.342Z,7.84
2018-03-24T17:40:21.331Z,7.90
2018-03-24T17:42:50.551Z,7.62
2018-03-24T17:45:23.364Z,7.67
2018-03-24T17:47:53.090Z,7.37
2018-03-24T17:50:22.950Z,7.44
2018-03-24T17:52:52.204Z,7.70
2018-03-24T17:55:21.489Z,7.80
2018-03-24T17:57:51.115Z,7.57
2018-03-24T18:00:20.326Z,7.29
2018-03-24T18:02:50.432Z,7.50
2018-03-24T18:05:20.568Z,7.55
2018-03-24T18:07:50.539Z,7.41
2018-03-24T18:10:19.812Z,7.54
2018-03-24T18:12:49.232Z,7.50
2018-03-24T18:15:18.455Z,7.41
2018-03-24T18:17:47.899Z,7.33
2018-03-24T18:20:18.721Z,7.36
2018-03-24T18:22:47.936Z,7.43
2018-03-24T18:25:17.201Z,7.34
2018-03-24T18:27:46.413Z,7.11
2018-03-24T18:30:16.290Z,7.04
2018-03-24T18:32:45.580Z,6.67
2018-03-24T18:35:14.780Z,6.85
2018-03-24T18:37:44.029Z,6.56
2018-03-24T18:40:13.429Z,6.40
2018-03-24T18:42:42.885Z,6.35
2018-03-24T18:45:13.103Z,6.37
2018-03-24T18:47:42.623Z,6.38
2018-03-24T18:50:12.048Z,6.11
2018-03-24T18:52:41.284Z,6.13
2018-03-24T18:55:10.538Z,6.20
2018-03-24T18:57:39.927Z,6.33
2018-03-24T19:00:09.874Z,6.36
2018-03-24T19:02:39.133Z,6.27
2018-03-24T19:05:09.416Z,6.26
2018-03-24T19:07:38.739Z,6.28
2018-03-24T19:10:08.485Z,6.17
2018-03-24T19:12:38.190Z,5.49
2018-03-24T19:15:08.721Z,4.93
2018-03-24T19:17:37.907Z,5.15
2018-03-24T19:20:08.289Z,5.39
2018-03-24T19:22:37.607Z,5.52
2018-03-24T19:25:07.447Z,5.56
2018-03-24T19:27:36.727Z,5.25
2018-03-24T19:30:06.803Z,5.33
2018-03-24T19:32:36.194Z,5.05
2018-03-24T19:35:06.123Z,4.74
2018-03-24T19:37:35.499Z,4.30
2018-03-24T19:40:05.386Z,4.54
2018-03-24T19:42:35.806Z,4.88
2018-03-24T19:47:34.217Z,4.38
2018-03-24T19:50:03.497Z,4.52
2018-03-24T19:52:33.291Z,4.53
2018-03-24T19:55:03.321Z,4.68
2018-03-24T19:57:33.069Z,4.83
2018-03-24T20:00:02.412Z,4.80
2018-03-24T20:02:32.112Z,4.71
2018-03-24T20:05:01.623Z,4.32
2018-03-24T20:07:30.912Z,3.89
2018-03-24T20:10:00.639Z,4.14
2018-03-24T20:12:29.952Z,3.87
2018-03-24T20:14:59.288Z,3.90
2018-03-24T20:17:28.940Z,3.79
2018-03-24T20:19:58.537Z,4.06
2018-03-24T20:22:27.740Z,3.71
2018-03-24T20:24:57.252Z,3.62
2018-03-24T20:27:26.470Z,3.82
2018-03-24T20:29:56.174Z,3.32
2018-03-24T20:32:25.799Z,3.31
2018-03-24T20:34:55.486Z,3.41
2018-03-24T20:37:24.957Z,3.18
2018-03-24T20:39:54.822Z,3.35
2018-03-24T20:42:24.378Z,3.07
2018-03-24T20:44:54.209Z,2.97
2018-03-24T20:47:23.895Z,2.74
2018-03-24T20:49:53.229Z,2.82
2018-03-24T20:52:22.608Z,2.84
2018-03-24T20:54:52.148Z,3.29
2018-03-24T20:57:21.336Z,3.38
2018-03-24T20:59:50.581Z,3.11
2018-03-24T21:02:20.086Z,2.99
2018-03-24T21:04:49.420Z,3.17
2018-03-24T21:07:18.763Z,3.33
2018-03-24T21:09:48.278Z,2.96
2018-03-24T21:12:18.164Z,3.09
2018-03-24T21:14:47.432Z,3.62
2018-03-24T21:17:16.994Z,3.72
2018-03-24T21:19:46.560Z,3.65
2018-03-24T21:22:16.038Z,3.57
2018-03-24T21:24:45.315Z,3.74
2018-03-24T21:27:14.855Z,3.35
2018-03-24T21:29:44.292Z,2.85
2018-03-24T21:32:13.988Z,2.76
2018-03-24T21:34:43.153Z,2.61
2018-03-24T21:37:12.394Z,2.70
2018-03-24T21:39:41.801Z,2.60
2018-03-24T21:42:11.516Z,2.49
2018-03-24T21:44:40.838Z,2.33
2018-03-24T21:47:11.610Z,2.10
2018-03-24T21:49:41.280Z,2.34
2018-03-24T21:52:10.559Z,2.79
2018-03-24T21:54:39.833Z,2.00
2018-03-24T21:57:09.392Z,2.03
2018-03-24T21:59:38.657Z,1.94
2018-03-24T22:02:08.082Z,1.83
2018-03-24T22:04:37.314Z,1.77
2018-03-24T22:07:06.908Z,1.81
2018-03-24T22:09:36.365Z,1.82
2018-03-24T22:12:05.704Z,1.91
2018-03-24T22:14:35.014Z,2.12
2018-03-24T22:17:04.602Z,1.78
2018-03-24T22:19:33.941Z,2.13
2018-03-24T22:22:03.330Z,1.81
2018-03-24T22:24:32.647Z,2.13
2018-03-24T22:27:01.941Z,2.04
2018-03-24T22:29:31.415Z,2.20
2018-03-24T22:32:00.912Z,2.34
2018-03-24T22:34:30.224Z,1.99
2018-03-24T22:36:59.537Z,1.73
2018-03-24T22:39:29.083Z,2.03
2018-03-24T22:41:58.523Z,2.11
2018-03-24T22:44:27.843Z,1.85
2018-03-24T22:46:57.310Z,2.11
2018-03-24T22:49:26.718Z,1.95
2018-03-24T22:51:56.139Z,1.64
2018-03-24T22:54:26.235Z,1.87
2018-03-24T22:56:55.667Z,1.95
2018-03-24T22:59:24.877Z,2.04
2018-03-24T23:01:56.106Z,1.84
2018-03-24T23:04:25.547Z,1.89
2018-03-24T23:06:54.925Z,1.62
2018-03-24T23:09:24.606Z,1.79
2018-03-24T23:11:54.142Z,1.81
2018-03-24T23:14:23.464Z,1.60
2018-03-24T23:16:52.965Z,1.21
2018-03-24T23:19:22.195Z,1.29
2018-03-24T23:21:51.425Z,1.55
2018-03-24T23:24:20.915Z,1.66
2018-03-24T23:26:50.197Z,1.42
2018-03-24T23:29:19.503Z,1.61
2018-03-24T23:31:50.018Z,1.72
2018-03-24T23:34:19.855Z,1.58
2018-03-24T23:36:50.408Z,1.14
2018-03-24T23:39:23.596Z,1.24
2018-03-24T23:41:57.429Z,1.08
2018-03-24T23:44:27.224Z,1.13
2018-03-24T23:46:56.658Z,1.36
2018-03-24T23:49:25.904Z,1.56
2018-03-24T23:51:55.733Z,1.46
2018-03-24T23:54:25.294Z,1.42
2018-03-24T23:56:54.491Z,1.39
2018-03-24T23:59:24.109Z,1.41
